sensor_id;sensor_type;location;lat;lon;timestamp;P1;durP1;ratioP1;P2;durP2;ratioP2
11957;SDS011;6039;52.576;13.348;2022-09-12T00:01:20;4.17;;;3.30;;
11957;SDS011;6039;52.576;13.348;2022-09-12T00:06:26;7.50;;;3.40;;
11957;SDS011;6039;52.576;13.348;2022-09-12T00:11:29;4.23;;;3.27;;
11957;SDS011;6039;52.576;13.348;2022-09-12T00:16:33;5.33;;;3.87;;
11957;SDS011;6039;52.576;13.348;2022-09-12T00:21:38;6.80;;;3.50;;
11957;SDS011;6039;52.576;13.348;2022-09-12T00:26:40;3.70;;;3.30;;
11957;SDS011;6039;52.576;13.348;2022-09-12T00:31:43;4.40;;;3.70;;
11957;SDS011;6039;52.576;13.348;2022-09-12T00:36:47;4.57;;;3.13;;
11957;SDS011;6039;52.576;13.348;2022-09-12T00:41:49;5.40;;;3.10;;
11957;SDS011;6039;52.576;13.348;2022-09-12T00:46:52;3.43;;;3.00;;
11957;SDS011;6039;52.576;13.348;2022-09-12T00:51:59;3.97;;;3.50;;
11957;SDS011;6039;52.576;13.348;2022-09-12T00:57:05;3.97;;;3.20;;
11957;SDS011;6039;52.576;13.348;2022-09-12T01:02:08;4.63;;;3.40;;
11957;SDS011;6039;52.576;13.348;2022-09-12T01:07:12;3.77;;;3.30;;
11957;SDS011;6039;52.576;13.348;2022-09-12T01:12:15;3.83;;;3.30;;
11957;SDS011;6039;52.576;13.348;2022-09-12T01:17:18;4.97;;;3.70;;
11957;SDS011;6039;52.576;13.348;2022-09-12T01:27:46;4.33;;;3.23;;
11957;SDS011;6039;52.576;13.348;2022-09-12T01:38:26;3.57;;;3.27;;
11957;SDS011;6039;52.576;13.348;2022-09-12T01:43:34;4.37;;;3.50;;
11957;SDS011;6039;52.576;13.348;2022-09-12T01:48:39;5.10;;;3.60;;
11957;SDS011;6039;52.576;13.348;2022-09-12T01:53:47;4.93;;;3.03;;
11957;SDS011;6039;52.576;13.348;2022-09-12T01:58:53;7.03;;;3.47;;
11957;SDS011;6039;52.576;13.348;2022-09-12T02:04:02;3.87;;;3.57;;
11957;SDS011;6039;52.576;13.348;2022-09-12T02:09:08;3.53;;;3.20;;
11957;SDS011;6039;52.576;13.348;2022-09-12T02:14:13;5.00;;;3.70;;
11957;SDS011;6039;52.576;13.348;2022-09-12T02:19:20;6.83;;;3.73;;
11957;SDS011;6039;52.576;13.348;2022-09-12T02:24:26;4.60;;;4.10;;
11957;SDS011;6039;52.576;13.348;2022-09-12T02:29:30;5.87;;;4.20;;
11957;SDS011;6039;52.576;13.348;2022-09-12T02:34:38;6.03;;;3.93;;
11957;SDS011;6039;52.576;13.348;2022-09-12T02:39:44;6.13;;;4.07;;
11957;SDS011;6039;52.576;13.348;2022-09-12T02:44:47;4.80;;;4.30;;
11957;SDS011;6039;52.576;13.348;2022-09-12T02:49:51;4.57;;;3.87;;
11957;SDS011;6039;52.576;13.348;2022-09-12T02:54:54;8.03;;;5.00;;
11957;SDS011;6039;52.576;13.348;2022-09-12T02:59:59;6.63;;;4.93;;
11957;SDS011;6039;52.576;13.348;2022-09-12T03:05:12;7.37;;;4.87;;
11957;SDS011;6039;52.576;13.348;2022-09-12T03:10:21;6.03;;;4.97;;
11957;SDS011;6039;52.576;13.348;2022-09-12T03:15:31;7.53;;;5.30;;
11957;SDS011;6039;52.576;13.348;2022-09-12T03:20:44;8.37;;;5.83;;
11957;SDS011;6039;52.576;13.348;2022-09-12T03:25:51;8.10;;;5.97;;
11957;SDS011;6039;52.576;13.348;2022-09-12T03:30:57;7.23;;;5.37;;
11957;SDS011;6039;52.576;13.348;2022-09-12T03:36:01;9.10;;;5.00;;
11957;SDS011;6039;52.576;13.348;2022-09-12T03:41:04;7.63;;;5.77;;
11957;SDS011;6039;52.576;13.348;2022-09-12T03:46:06;11.80;;;6.00;;
11957;SDS011;6039;52.576;13.348;2022-09-12T03:51:10;11.90;;;6.47;;
11957;SDS011;6039;52.576;13.348;2022-09-12T03:56:13;8.83;;;6.77;;
11957;SDS011;6039;52.576;13.348;2022-09-12T04:01:16;9.33;;;6.37;;
11957;SDS011;6039;52.576;13.348;2022-09-12T04:06:21;9.97;;;6.40;;
11957;SDS011;6039;52.576;13.348;2022-09-12T04:11:23;7.93;;;6.20;;
11957;SDS011;6039;52.576;13.348;2022-09-12T04:16:26;9.03;;;5.97;;
11957;SDS011;6039;52.576;13.348;2022-09-12T04:21:30;7.37;;;6.00;;
11957;SDS011;6039;52.576;13.348;2022-09-12T04:26:32;10.50;;;6.77;;
11957;SDS011;6039;52.576;13.348;2022-09-12T04:31:35;10.03;;;6.10;;
11957;SDS011;6039;52.576;13.348;2022-09-12T04:36:39;8.80;;;6.50;;
11957;SDS011;6039;52.576;13.348;2022-09-12T04:41:42;9.50;;;6.70;;
11957;SDS011;6039;52.576;13.348;2022-09-12T04:46:45;7.27;;;6.10;;
11957;SDS011;6039;52.576;13.348;2022-09-12T04:51:51;9.13;;;6.10;;
11957;SDS011;6039;52.576;13.348;2022-09-12T04:56:54;8.37;;;5.83;;
11957;SDS011;6039;52.576;13.348;2022-09-12T05:01:56;6.63;;;5.93;;
11957;SDS011;6039;52.576;13.348;2022-09-12T05:07:00;13.00;;;5.47;;
11957;SDS011;6039;52.576;13.348;2022-09-12T05:12:03;7.43;;;6.10;;
11957;SDS011;6039;52.576;13.348;2022-09-12T05:17:06;7.00;;;5.93;;
11957;SDS011;6039;52.576;13.348;2022-09-12T05:22:10;7.93;;;5.83;;
11957;SDS011;6039;52.576;13.348;2022-09-12T05:27:12;7.43;;;6.30;;
11957;SDS011;6039;52.576;13.348;2022-09-12T05:32:15;9.53;;;7.13;;
11957;SDS011;6039;52.576;13.348;2022-09-12T05:37:18;10.13;;;6.27;;
11957;SDS011;6039;52.576;13.348;2022-09-12T05:42:22;25.00;;;17.70;;
11957;SDS011;6039;52.576;13.348;2022-09-12T05:47:24;7.20;;;6.47;;
11957;SDS011;6039;52.576;13.348;2022-09-12T05:52:28;8.67;;;6.67;;
11957;SDS011;6039;52.576;13.348;2022-09-12T05:57:32;11.60;;;7.13;;
11957;SDS011;6039;52.576;13.348;2022-09-12T06:02:34;11.67;;;7.77;;
11957;SDS011;6039;52.576;13.348;2022-09-12T06:07:38;11.10;;;7.20;;
11957;SDS011;6039;52.576;13.348;2022-09-12T06:12:40;10.07;;;7.67;;
11957;SDS011;6039;52.576;13.348;2022-09-12T06:17:43;10.50;;;8.17;;
11957;SDS011;6039;52.576;13.348;2022-09-12T06:22:47;12.50;;;7.97;;
11957;SDS011;6039;52.576;13.348;2022-09-12T06:27:49;11.80;;;8.30;;
11957;SDS011;6039;52.576;13.348;2022-09-12T06:32:52;9.67;;;7.73;;
11957;SDS011;6039;52.576;13.348;2022-09-12T06:37:57;15.27;;;8.57;;
11957;SDS011;6039;52.576;13.348;2022-09-12T06:42:59;16.27;;;9.70;;
11957;SDS011;6039;52.576;13.348;2022-09-12T06:48:02;12.70;;;9.43;;
11957;SDS011;6039;52.576;13.348;2022-09-12T06:53:06;11.07;;;9.00;;
11957;SDS011;6039;52.576;13.348;2022-09-12T06:58:08;9.97;;;7.80;;
11957;SDS011;6039;52.576;13.348;2022-09-12T07:03:11;11.23;;;7.80;;
11957;SDS011;6039;52.576;13.348;2022-09-12T07:08:15;10.00;;;7.53;;
11957;SDS011;6039;52.576;13.348;2022-09-12T07:13:17;5.70;;;5.00;;
11957;SDS011;6039;52.576;13.348;2022-09-12T07:18:20;5.73;;;5.03;;
11957;SDS011;6039;52.576;13.348;2022-09-12T07:23:25;5.43;;;4.17;;
11957;SDS011;6039;52.576;13.348;2022-09-12T07:28:28;7.37;;;5.07;;
11957;SDS011;6039;52.576;13.348;2022-09-12T07:33:31;9.07;;;5.23;;
11957;SDS011;6039;52.576;13.348;2022-09-12T07:38:35;10.67;;;6.60;;
11957;SDS011;6039;52.576;13.348;2022-09-12T07:43:37;13.03;;;5.80;;
11957;SDS011;6039;52.576;13.348;2022-09-12T07:48:40;8.17;;;5.93;;
11957;SDS011;6039;52.576;13.348;2022-09-12T07:53:45;7.73;;;5.17;;
11957;SDS011;6039;52.576;13.348;2022-09-12T07:58:48;5.77;;;4.13;;
11957;SDS011;6039;52.576;13.348;2022-09-12T08:03:52;5.43;;;3.90;;
11957;SDS011;6039;52.576;13.348;2022-09-12T08:08:58;5.90;;;3.80;;
11957;SDS011;6039;52.576;13.348;2022-09-12T08:14:00;3.57;;;2.60;;
11957;SDS011;6039;52.576;13.348;2022-09-12T08:19:04;3.25;;;2.92;;
11957;SDS011;6039;52.576;13.348;2022-09-12T08:24:09;4.23;;;2.97;;
11957;SDS011;6039;52.576;13.348;2022-09-12T08:29:12;6.23;;;3.27;;
11957;SDS011;6039;52.576;13.348;2022-09-12T08:34:15;5.30;;;3.20;;
11957;SDS011;6039;52.576;13.348;2022-09-12T08:39:19;5.87;;;2.57;;
11957;SDS011;6039;52.576;13.348;2022-09-12T08:44:27;4.33;;;2.30;;
11957;SDS011;6039;52.576;13.348;2022-09-12T08:49:46;2.77;;;2.20;;
11957;SDS011;6039;52.576;13.348;2022-09-12T08:54:57;2.97;;;1.70;;
11957;SDS011;6039;52.576;13.348;2022-09-12T08:59:59;2.20;;;1.70;;
11957;SDS011;6039;52.576;13.348;2022-09-12T09:05:06;2.70;;;1.60;;
11957;SDS011;6039;52.576;13.348;2022-09-12T09:10:19;2.93;;;1.83;;
11957;SDS011;6039;52.576;13.348;2022-09-12T09:15:36;5.90;;;1.70;;
11957;SDS011;6039;52.576;13.348;2022-09-12T09:20:43;3.95;;;1.70;;
11957;SDS011;6039;52.576;13.348;2022-09-12T09:25:49;3.88;;;1.73;;
11957;SDS011;6039;52.576;13.348;2022-09-12T09:30:53;3.67;;;2.40;;
11957;SDS011;6039;52.576;13.348;2022-09-12T09:35:58;2.85;;;1.40;;
11957;SDS011;6039;52.576;13.348;2022-09-12T09:41:11;2.90;;;1.73;;
11957;SDS011;6039;52.576;13.348;2022-09-12T09:46:23;4.53;;;3.00;;
11957;SDS011;6039;52.576;13.348;2022-09-12T09:51:27;4.68;;;1.88;;
11957;SDS011;6039;52.576;13.348;2022-09-12T09:56:35;1.77;;;1.60;;
11957;SDS011;6039;52.576;13.348;2022-09-12T10:01:43;2.25;;;1.55;;
11957;SDS011;6039;52.576;13.348;2022-09-12T10:06:46;1.70;;;1.40;;
11957;SDS011;6039;52.576;13.348;2022-09-12T10:11:50;2.17;;;1.50;;
11957;SDS011;6039;52.576;13.348;2022-09-12T10:16:53;3.22;;;1.80;;
11957;SDS011;6039;52.576;13.348;2022-09-12T10:21:58;2.72;;;1.48;;
11957;SDS011;6039;52.576;13.348;2022-09-12T10:27:08;3.33;;;1.60;;
11957;SDS011;6039;52.576;13.348;2022-09-12T10:32:19;5.43;;;2.15;;
11957;SDS011;6039;52.576;13.348;2022-09-12T10:37:23;3.10;;;1.83;;
11957;SDS011;6039;52.576;13.348;2022-09-12T10:42:45;4.80;;;1.70;;
11957;SDS011;6039;52.576;13.348;2022-09-12T10:47:49;2.28;;;1.58;;
11957;SDS011;6039;52.576;13.348;2022-09-12T10:52:52;2.33;;;1.70;;
11957;SDS011;6039;52.576;13.348;2022-09-12T10:58:02;2.83;;;1.30;;
11957;SDS011;6039;52.576;13.348;2022-09-12T11:03:14;8.63;;;1.50;;
11957;SDS011;6039;52.576;13.348;2022-09-12T11:08:42;1.77;;;1.30;;
11957;SDS011;6039;52.576;13.348;2022-09-12T11:13:56;2.17;;;1.27;;
11957;SDS011;6039;52.576;13.348;2022-09-12T11:19:09;1.77;;;1.13;;
11957;SDS011;6039;52.576;13.348;2022-09-12T11:24:31;1.52;;;1.00;;
11957;SDS011;6039;52.576;13.348;2022-09-12T11:30:08;4.60;;;1.27;;
11957;SDS011;6039;52.576;13.348;2022-09-12T11:35:16;1.45;;;1.17;;
11957;SDS011;6039;52.576;13.348;2022-09-12T11:40:24;1.42;;;1.10;;
11957;SDS011;6039;52.576;13.348;2022-09-12T11:45:33;1.38;;;1.13;;
11957;SDS011;6039;52.576;13.348;2022-09-12T11:50:40;2.00;;;1.30;;
11957;SDS011;6039;52.576;13.348;2022-09-12T11:55:46;5.53;;;1.30;;
11957;SDS011;6039;52.576;13.348;2022-09-12T12:00:55;2.00;;;1.20;;
11957;SDS011;6039;52.576;13.348;2022-09-12T12:06:04;1.37;;;1.23;;
11957;SDS011;6039;52.576;13.348;2022-09-12T12:11:13;1.52;;;1.35;;
11957;SDS011;6039;52.576;13.348;2022-09-12T12:16:19;1.92;;;1.38;;
11957;SDS011;6039;52.576;13.348;2022-09-12T12:21:30;1.43;;;1.30;;
11957;SDS011;6039;52.576;13.348;2022-09-12T12:26:42;1.42;;;1.33;;
11957;SDS011;6039;52.576;13.348;2022-09-12T12:37:47;1.70;;;1.20;;
11957;SDS011;6039;52.576;13.348;2022-09-12T12:43:02;1.50;;;1.37;;
11957;SDS011;6039;52.576;13.348;2022-09-12T12:48:08;2.53;;;1.40;;
11957;SDS011;6039;52.576;13.348;2022-09-12T12:53:16;1.57;;;1.30;;
11957;SDS011;6039;52.576;13.348;2022-09-12T12:58:25;2.63;;;1.30;;
11957;SDS011;6039;52.576;13.348;2022-09-12T13:03:31;2.10;;;1.27;;
11957;SDS011;6039;52.576;13.348;2022-09-12T13:08:35;2.25;;;1.10;;
11957;SDS011;6039;52.576;13.348;2022-09-12T13:13:39;2.27;;;1.30;;
11957;SDS011;6039;52.576;13.348;2022-09-12T13:18:46;1.97;;;1.30;;
11957;SDS011;6039;52.576;13.348;2022-09-12T13:29:16;1.40;;;1.27;;
11957;SDS011;6039;52.576;13.348;2022-09-12T13:34:21;3.27;;;1.77;;
11957;SDS011;6039;52.576;13.348;2022-09-12T13:39:26;1.50;;;1.20;;
11957;SDS011;6039;52.576;13.348;2022-09-12T13:44:30;1.97;;;1.70;;
11957;SDS011;6039;52.576;13.348;2022-09-12T13:49:54;1.97;;;1.30;;
11957;SDS011;6039;52.576;13.348;2022-09-12T13:55:07;3.07;;;2.00;;
11957;SDS011;6039;52.576;13.348;2022-09-12T14:00:15;6.97;;;4.07;;
11957;SDS011;6039;52.576;13.348;2022-09-12T14:05:23;1.40;;;1.03;;
11957;SDS011;6039;52.576;13.348;2022-09-12T14:10:33;1.20;;;1.10;;
11957;SDS011;6039;52.576;13.348;2022-09-12T14:15:36;12.77;;;2.30;;
11957;SDS011;6039;52.576;13.348;2022-09-12T14:20:41;1.40;;;1.30;;
11957;SDS011;6039;52.576;13.348;2022-09-12T14:25:44;2.77;;;1.27;;
11957;SDS011;6039;52.576;13.348;2022-09-12T14:30:58;1.37;;;1.10;;
11957;SDS011;6039;52.576;13.348;2022-09-12T14:36:16;2.10;;;1.40;;
11957;SDS011;6039;52.576;13.348;2022-09-12T14:41:24;2.43;;;1.40;;
11957;SDS011;6039;52.576;13.348;2022-09-12T14:46:30;1.93;;;1.60;;
11957;SDS011;6039;52.576;13.348;2022-09-12T14:51:39;5.40;;;1.70;;
11957;SDS011;6039;52.576;13.348;2022-09-12T14:56:52;3.33;;;1.33;;
11957;SDS011;6039;52.576;13.348;2022-09-12T15:02:18;2.60;;;1.40;;
11957;SDS011;6039;52.576;13.348;2022-09-12T15:07:27;2.90;;;1.40;;
11957;SDS011;6039;52.576;13.348;2022-09-12T15:12:32;3.77;;;1.70;;
11957;SDS011;6039;52.576;13.348;2022-09-12T15:17:34;1.80;;;1.40;;
11957;SDS011;6039;52.576;13.348;2022-09-12T15:22:38;2.47;;;1.30;;
11957;SDS011;6039;52.576;13.348;2022-09-12T15:27:41;3.67;;;1.77;;
11957;SDS011;6039;52.576;13.348;2022-09-12T15:32:44;1.53;;;1.40;;
11957;SDS011;6039;52.576;13.348;2022-09-12T15:37:48;1.63;;;1.50;;
11957;SDS011;6039;52.576;13.348;2022-09-12T15:42:51;1.40;;;1.30;;
11957;SDS011;6039;52.576;13.348;2022-09-12T15:47:53;6.00;;;1.70;;
11957;SDS011;6039;52.576;13.348;2022-09-12T15:52:57;2.07;;;1.70;;
11957;SDS011;6039;52.576;13.348;2022-09-12T15:58:00;3.70;;;1.90;;
11957;SDS011;6039;52.576;13.348;2022-09-12T16:03:03;1.83;;;1.63;;
11957;SDS011;6039;52.576;13.348;2022-09-12T16:08:06;3.30;;;1.40;;
11957;SDS011;6039;52.576;13.348;2022-09-12T16:13:09;4.10;;;1.63;;
11957;SDS011;6039;52.576;13.348;2022-09-12T16:18:20;2.10;;;1.83;;
11957;SDS011;6039;52.576;13.348;2022-09-12T16:23:36;2.03;;;1.60;;
11957;SDS011;6039;52.576;13.348;2022-09-12T16:28:39;2.10;;;1.90;;
11957;SDS011;6039;52.576;13.348;2022-09-12T16:33:42;1.83;;;1.70;;
11957;SDS011;6039;52.576;13.348;2022-09-12T16:38:50;2.00;;;1.73;;
11957;SDS011;6039;52.576;13.348;2022-09-12T16:43:56;2.00;;;1.73;;
11957;SDS011;6039;52.576;13.348;2022-09-12T16:48:59;2.30;;;1.80;;
11957;SDS011;6039;52.576;13.348;2022-09-12T16:54:06;3.27;;;2.40;;
11957;SDS011;6039;52.576;13.348;2022-09-12T16:59:11;2.27;;;1.90;;
11957;SDS011;6039;52.576;13.348;2022-09-12T17:04:15;4.23;;;1.90;;
11957;SDS011;6039;52.576;13.348;2022-09-12T17:09:19;5.53;;;2.03;;
11957;SDS011;6039;52.576;13.348;2022-09-12T17:14:25;2.63;;;2.00;;
11957;SDS011;6039;52.576;13.348;2022-09-12T17:19:27;2.70;;;2.10;;
11957;SDS011;6039;52.576;13.348;2022-09-12T17:24:35;4.90;;;2.50;;
11957;SDS011;6039;52.576;13.348;2022-09-12T17:29:38;3.07;;;2.47;;
11957;SDS011;6039;52.576;13.348;2022-09-12T17:34:41;2.03;;;1.83;;
11957;SDS011;6039;52.576;13.348;2022-09-12T17:39:44;4.00;;;2.60;;
11957;SDS011;6039;52.576;13.348;2022-09-12T17:44:47;3.43;;;2.90;;
11957;SDS011;6039;52.576;13.348;2022-09-12T17:49:49;5.13;;;3.83;;
11957;SDS011;6039;52.576;13.348;2022-09-12T17:54:54;7.20;;;5.40;;
11957;SDS011;6039;52.576;13.348;2022-09-12T18:00:06;5.03;;;4.30;;
11957;SDS011;6039;52.576;13.348;2022-09-12T18:05:10;8.53;;;4.67;;
11957;SDS011;6039;52.576;13.348;2022-09-12T18:10:14;5.97;;;4.53;;
11957;SDS011;6039;52.576;13.348;2022-09-12T18:15:17;6.30;;;4.70;;
11957;SDS011;6039;52.576;13.348;2022-09-12T18:20:25;7.27;;;5.10;;
11957;SDS011;6039;52.576;13.348;2022-09-12T18:25:29;6.23;;;4.73;;
11957;SDS011;6039;52.576;13.348;2022-09-12T18:30:32;6.10;;;4.20;;
11957;SDS011;6039;52.576;13.348;2022-09-12T18:35:36;10.43;;;5.40;;
11957;SDS011;6039;52.576;13.348;2022-09-12T18:40:40;12.20;;;8.43;;
11957;SDS011;6039;52.576;13.348;2022-09-12T18:45:42;13.47;;;8.40;;
11957;SDS011;6039;52.576;13.348;2022-09-12T18:50:44;10.47;;;8.53;;
11957;SDS011;6039;52.576;13.348;2022-09-12T18:55:48;13.40;;;9.20;;
11957;SDS011;6039;52.576;13.348;2022-09-12T19:00:51;8.53;;;7.37;;
11957;SDS011;6039;52.576;13.348;2022-09-12T19:05:53;10.50;;;5.63;;
11957;SDS011;6039;52.576;13.348;2022-09-12T19:10:57;7.83;;;6.03;;
11957;SDS011;6039;52.576;13.348;2022-09-12T19:15:59;6.90;;;5.10;;
11957;SDS011;6039;52.576;13.348;2022-09-12T19:21:02;8.07;;;4.80;;
11957;SDS011;6039;52.576;13.348;2022-09-12T19:26:08;6.40;;;5.13;;
11957;SDS011;6039;52.576;13.348;2022-09-12T19:31:11;6.33;;;4.57;;
11957;SDS011;6039;52.576;13.348;2022-09-12T19:36:17;6.93;;;4.47;;
11957;SDS011;6039;52.576;13.348;2022-09-12T19:41:30;4.93;;;4.33;;
11957;SDS011;6039;52.576;13.348;2022-09-12T19:46:33;6.00;;;4.53;;
11957;SDS011;6039;52.576;13.348;2022-09-12T19:51:35;7.37;;;5.30;;
11957;SDS011;6039;52.576;13.348;2022-09-12T19:56:39;9.63;;;5.20;;
11957;SDS011;6039;52.576;13.348;2022-09-12T20:01:41;7.40;;;6.30;;
11957;SDS011;6039;52.576;13.348;2022-09-12T20:06:43;12.33;;;6.97;;
11957;SDS011;6039;52.576;13.348;2022-09-12T20:11:47;14.63;;;9.80;;
11957;SDS011;6039;52.576;13.348;2022-09-12T20:16:50;11.43;;;7.80;;
11957;SDS011;6039;52.576;13.348;2022-09-12T20:21:52;10.27;;;5.93;;
11957;SDS011;6039;52.576;13.348;2022-09-12T20:26:56;9.47;;;6.10;;
11957;SDS011;6039;52.576;13.348;2022-09-12T20:31:59;10.17;;;7.13;;
11957;SDS011;6039;52.576;13.348;2022-09-12T20:37:01;10.57;;;6.40;;
11957;SDS011;6039;52.576;13.348;2022-09-12T20:42:05;12.93;;;6.83;;
11957;SDS011;6039;52.576;13.348;2022-09-12T20:47:08;9.43;;;6.20;;
11957;SDS011;6039;52.576;13.348;2022-09-12T20:52:10;8.37;;;6.67;;
11957;SDS011;6039;52.576;13.348;2022-09-12T20:57:14;9.07;;;6.40;;
11957;SDS011;6039;52.576;13.348;2022-09-12T21:02:16;9.40;;;6.77;;
11957;SDS011;6039;52.576;13.348;2022-09-12T21:07:18;14.00;;;7.63;;
11957;SDS011;6039;52.576;13.348;2022-09-12T21:12:22;9.80;;;7.03;;
11957;SDS011;6039;52.576;13.348;2022-09-12T21:17:24;9.87;;;7.23;;
11957;SDS011;6039;52.576;13.348;2022-09-12T21:22:27;11.80;;;7.20;;
11957;SDS011;6039;52.576;13.348;2022-09-12T21:27:31;7.70;;;6.70;;
11957;SDS011;6039;52.576;13.348;2022-09-12T21:32:34;8.37;;;7.27;;
11957;SDS011;6039;52.576;13.348;2022-09-12T21:37:36;11.80;;;7.93;;
11957;SDS011;6039;52.576;13.348;2022-09-12T21:42:40;10.00;;;6.97;;
11957;SDS011;6039;52.576;13.348;2022-09-12T21:47:42;9.87;;;7.67;;
11957;SDS011;6039;52.576;13.348;2022-09-12T21:52:45;11.80;;;7.53;;
11957;SDS011;6039;52.576;13.348;2022-09-12T21:57:49;14.63;;;7.40;;
11957;SDS011;6039;52.576;13.348;2022-09-12T22:02:51;6.13;;;5.00;;
11957;SDS011;6039;52.576;13.348;2022-09-12T22:07:53;8.83;;;6.87;;
11957;SDS011;6039;52.576;13.348;2022-09-12T22:12:57;10.53;;;7.10;;
11957;SDS011;6039;52.576;13.348;2022-09-12T22:17:59;6.63;;;5.00;;
11957;SDS011;6039;52.576;13.348;2022-09-12T22:23:02;6.63;;;5.83;;
11957;SDS011;6039;52.576;13.348;2022-09-12T22:28:23;8.00;;;5.87;;
11957;SDS011;6039;52.576;13.348;2022-09-12T22:33:26;6.07;;;4.40;;
11957;SDS011;6039;52.576;13.348;2022-09-12T22:38:29;5.60;;;4.83;;
11957;SDS011;6039;52.576;13.348;2022-09-12T22:43:33;4.20;;;3.70;;
11957;SDS011;6039;52.576;13.348;2022-09-12T22:48:35;6.80;;;4.30;;
11957;SDS011;6039;52.576;13.348;2022-09-12T22:53:38;3.93;;;3.53;;
11957;SDS011;6039;52.576;13.348;2022-09-12T22:58:41;3.90;;;3.20;;
11957;SDS011;6039;52.576;13.348;2022-09-12T23:03:44;4.47;;;3.37;;
11957;SDS011;6039;52.576;13.348;2022-09-12T23:08:46;3.50;;;3.20;;
11957;SDS011;6039;52.576;13.348;2022-09-12T23:13:50;3.93;;;3.50;;
11957;SDS011;6039;52.576;13.348;2022-09-12T23:18:52;3.90;;;3.30;;
11957;SDS011;6039;52.576;13.348;2022-09-12T23:23:55;3.40;;;3.10;;
11957;SDS011;6039;52.576;13.348;2022-09-12T23:28:59;3.63;;;3.23;;
11957;SDS011;6039;52.576;13.348;2022-09-12T23:34:03;4.10;;;3.33;;
11957;SDS011;6039;52.576;13.348;2022-09-12T23:39:05;4.50;;;3.10;;
11957;SDS011;6039;52.576;13.348;2022-09-12T23:44:10;3.80;;;3.40;;
11957;SDS011;6039;52.576;13.348;2022-09-12T23:49:12;3.30;;;3.00;;
11957;SDS011;6039;52.576;13.348;2022-09-12T23:54:15;3.60;;;3.30;;
11957;SDS011;6039;52.576;13.348;2022-09-12T23:59:18;4.87;;;3.40;;
